Selebi-Phikwe, Botswana

7:56 AM CAT on July 24, 2016 (GMT +0200)
Selebi-Phikwe | | Change Station

Elev 2927 ft 22.06 °S, 27.83 °E | Updated 56 minutes ago

Clear
Clear
52 °F
Feels Like 52 °F
N
9
Wind Variable Wind from ESE

Today
High -- | Low -- °F
--% Chance of Precip.
Yesterday
High -- | Low -- °F
Precip. -- in
Pressure 30.09 in
Visibility -9999.0 miles
Clouds
Dew Point 41 °F
Humidity 67%
Rainfall 0.00 in
Snow Depth Not available.
6:44 AM 5:45 PM
Waning Gibbous, 79% visible
METAR FBSP 240500Z 11008KT CAVOK 11/05 Q1019
Pressure 30.09 in
Visibility -9999.0 miles
Clouds
Dew Point 41 °F
Humidity 67%
Rainfall 0.00 in
Snow Depth Not available.
6:44 AM 5:45 PM
Waning Gibbous, 79% visible
METAR FBSP 240500Z 11008KT CAVOK 11/05 Q1019

10-Day Weather Forecast

No radar image for this location.
×

Almanac

Astronomy

Jul. 24, 2016 Rise Set
Actual Time
Civil Twilight
Nautical Twilight
Astronomical Twilight
Moon
Length of Visible Light
Length of Day
Tomorrow will be .
, % of the Moon is Illuminated

Today's Extremes

Country Highs Country Lows

Community

WunderPhotos

Upload Photos

1,927,039 photos uploaded!

WunderBlog® & News

Nearby

Air Quality

  Air Quality AQ Index Pollutant
Not available.

Snow Depth

Station Depth Elevation

Earthquake Activity

City Distance Mag. Time & Date
Minimum magnitude displayed is 2.5.

Coastal Water Temperatures

Place Temperature

Stations

Nearby Weather Stations

Station Location Temp. Windchill Dew Point Humidity Wind Precip. Elev Updated Type